Time;durP1;ratioP1;P1;durP2;ratioP2;P2;SDS_P1;SDS_P2;PMS_P1;PMS_P2;Temp;Humidity;BMP_temperature;BMP_pressure;BME280_temperature;BME280_humidity;BME280_pressure;Samples;Min_cycle;Max_cycle;Signal;HPM_P1;HPM_P2
2022/05/03 00:01:16;;;;;;;;;;;;;;;;;;5034424;28;20053;-68
2022/05/03 00:03:41;;;;;;;12.75;6.47;;;;;;;;;;5037790;28;20403;-68
2022/05/03 00:06:32;;;;;;;12.20;6.88;;;;;;;;;;5045265;28;20037;-68
2022/05/03 00:09:07;;;;;;;15.18;7.20;;;;;;;;;;5021918;28;20042;-68
2022/05/03 00:11:33;;;;;;;10.75;6.85;;;;;;;;;;5034691;28;20055;-68
2022/05/03 00:14:10;;;;;;;11.80;6.93;;;;;;;;;;5031995;28;20520;-68
2022/05/03 00:16:37;;;;;;;15.00;6.80;;;;;;;;;;5038579;28;20527;-68
2022/05/03 00:19:07;;;;;;;14.10;7.38;;;;;;;;;;5038660;28;20037;-68
2022/05/03 00:21:34;;;;;;;13.18;7.32;;;;;;;;;;5034647;28;20087;-68
2022/05/03 00:23:59;;;;;;;16.45;7.97;;;;;;;;;;5031612;28;20026;-68
2022/05/03 00:26:28;;;;;;;14.18;7.07;;;;;;;;;;5034569;28;20033;-68
2022/05/03 00:28:54;;;;;;;10.38;7.22;;;;;;;;;;5054786;28;20032;-68
2022/05/03 00:31:19;;;;;;;10.88;7.25;;;;;;;;;;5062012;28;20038;-68
2022/05/03 00:33:45;;;;;;;13.90;7.20;;;;;;;;;;5037855;28;20070;-68
2022/05/03 00:36:10;;;;;;;11.90;7.65;;;;;;;;;;5059137;28;20048;-68
2022/05/03 00:38:36;;;;;;;13.23;7.53;;;;;;;;;;5036237;28;20109;-68
2022/05/03 00:41:03;;;;;;;13.77;7.88;;;;;;;;;;5035695;28;20026;-68
2022/05/03 00:44:00;;;;;;;13.88;7.78;;;;;;;;;;5050765;28;20037;-68
2022/05/03 00:46:28;;;;;;;11.45;7.40;;;;;;;;;;5050808;28;20508;-68
2022/05/03 00:49:03;;;;;;;13.75;7.80;;;;;;;;;;5034974;28;20040;-68
2022/05/03 00:51:34;;;;;;;13.63;8.32;;;;;;;;;;5051205;28;20408;-68
2022/05/03 00:54:17;;;;;;;14.25;8.43;;;;;;;;;;5035511;28;20025;-68
2022/05/03 00:56:54;;;;;;;11.75;7.53;;;;;;;;;;5055265;28;20117;-68
2022/05/03 00:59:45;;;;;;;12.95;7.72;;;;;;;;;;5028715;28;20536;-68
2022/05/03 01:02:13;;;;;;;14.43;8.15;;;;;;;;;;5033811;28;20470;-68
2022/05/03 01:04:44;;;;;;;17.95;8.27;;;;;;;;;;5032475;28;20038;-68
2022/05/03 01:07:18;;;;;;;14.60;7.53;;;;;;;;;;5035851;28;20044;-68
2022/05/03 01:09:57;;;;;;;13.43;8.15;;;;;;;;;;5043472;28;20047;-68
2022/05/03 01:12:34;;;;;;;14.75;8.68;;;;;;;;;;5039508;28;20030;-68
2022/05/03 01:15:09;;;;;;;16.85;8.57;;;;;;;;;;5061078;28;20033;-68
2022/05/03 01:18:03;;;;;;;16.88;8.45;;;;;;;;;;5034256;28;20029;-68
2022/05/03 01:20:53;;;;;;;16.13;8.57;;;;;;;;;;5044959;28;20029;-68
2022/05/03 01:23:33;;;;;;;16.67;8.50;;;;;;;;;;5033997;28;20366;-68
2022/05/03 01:26:08;;;;;;;17.95;8.70;;;;;;;;;;5037973;28;20056;-68
2022/05/03 01:29:12;;;;;;;17.02;8.98;;;;;;;;;;5034875;28;20034;-68
2022/05/03 01:31:39;;;;;;;20.95;10.20;;;;;;;;;;5051772;28;20034;-68
2022/05/03 01:34:05;;;;;;;25.42;11.02;;;;;;;;;;5035456;28;20112;-68
2022/05/03 01:36:53;;;;;;;27.67;11.88;;;;;;;;;;5035613;28;20116;-68
2022/05/03 01:39:56;;;;;;;26.88;11.88;;;;;;;;;;5052864;28;20026;-68
2022/05/03 01:42:39;;;;;;;33.42;12.38;;;;;;;;;;5030543;28;20073;-68
2022/05/03 01:45:10;;;;;;;35.97;13.17;;;;;;;;;;5036487;28;20053;-68
2022/05/03 01:47:55;;;;;;;31.98;12.20;;;;;;;;;;5032164;28;20283;-68
2022/05/03 01:50:51;;;;;;;22.15;11.10;;;;;;;;;;5036757;28;20059;-68
2022/05/03 01:53:41;;;;;;;23.67;10.93;;;;;;;;;;5050670;28;20044;-68
2022/05/03 01:56:26;;;;;;;33.60;12.48;;;;;;;;;;5034584;28;20487;-68
2022/05/03 01:59:13;;;;;;;33.33;11.85;;;;;;;;;;5048841;28;20475;-68
2022/05/03 02:02:00;;;;;;;34.63;11.80;;;;;;;;;;5042804;28;20132;-68
2022/05/03 02:04:36;;;;;;;31.60;11.13;;;;;;;;;;5033226;28;20037;-68
2022/05/03 02:07:14;;;;;;;32.35;11.52;;;;;;;;;;5040306;28;20428;-68
2022/05/03 02:09:46;;;;;;;34.85;12.27;;;;;;;;;;5040529;28;20034;-68
2022/05/03 02:12:14;;;;;;;39.83;11.68;;;;;;;;;;5033261;28;20500;-68
2022/05/03 02:14:53;;;;;;;37.03;12.80;;;;;;;;;;5035876;28;20099;-68
2022/05/03 02:17:50;;;;;;;39.97;12.18;;;;;;;;;;5036742;28;20076;-68
2022/05/03 02:20:34;;;;;;;40.00;11.93;;;;;;;;;;5028045;28;20502;-68
2022/05/03 02:23:02;;;;;;;42.73;13.53;;;;;;;;;;5021287;28;20076;-68
2022/05/03 02:25:49;;;;;;;42.42;12.05;;;;;;;;;;5027342;28;20291;-68
2022/05/03 02:28:29;;;;;;;37.10;12.38;;;;;;;;;;5017355;28;20124;-68
2022/05/03 02:30:55;;;;;;;47.90;13.93;;;;;;;;;;5051667;28;20042;-68
2022/05/03 02:33:26;;;;;;;44.80;13.48;;;;;;;;;;5032515;28;20030;-68
2022/05/03 02:35:56;;;;;;;43.45;13.30;;;;;;;;;;5034241;28;20065;-68
2022/05/03 02:38:36;;;;;;;45.15;14.02;;;;;;;;;;5033461;28;20046;-68
2022/05/03 02:41:03;;;;;;;39.17;12.35;;;;;;;;;;5025448;28;20038;-68
2022/05/03 02:43:30;;;;;;;40.30;14.10;;;;;;;;;;5049237;28;20026;-68
2022/05/03 02:46:05;;;;;;;52.63;13.73;;;;;;;;;;5045752;28;20087;-68
2022/05/03 02:48:46;;;;;;;46.22;13.77;;;;;;;;;;5045033;28;20090;-68
2022/05/03 02:51:13;;;;;;;43.20;13.18;;;;;;;;;;5060817;28;20025;-68
2022/05/03 02:53:41;;;;;;;51.65;15.23;;;;;;;;;;5034069;28;20033;-68
2022/05/03 02:56:48;;;;;;;56.63;16.02;;;;;;;;;;5033622;28;20057;-68
2022/05/03 03:02:36;;;;;;;44.60;14.05;;;;;;;;;;4977374;28;20137;-69
2022/05/03 03:05:07;;;;;;;49.97;14.40;;;;;;;;;;5033041;28;20057;-68
2022/05/03 03:07:53;;;;;;;50.83;15.23;;;;;;;;;;5035924;28;20551;-68
2022/05/03 03:10:30;;;;;;;48.45;15.55;;;;;;;;;;5026122;28;20029;-68
2022/05/03 03:13:14;;;;;;;52.80;14.85;;;;;;;;;;5068476;28;20037;-68
2022/05/03 03:15:40;;;;;;;46.55;14.43;;;;;;;;;;5041734;28;20439;-68
2022/05/03 03:18:12;;;;;;;47.85;14.45;;;;;;;;;;5036330;28;20149;-68
2022/05/03 03:20:43;;;;;;;55.50;16.08;;;;;;;;;;5041589;28;20104;-69
2022/05/03 03:23:14;;;;;;;61.28;16.83;;;;;;;;;;5037599;28;20152;-68
2022/05/03 03:25:40;;;;;;;61.35;17.05;;;;;;;;;;5045925;28;20029;-68
2022/05/03 03:28:08;;;;;;;51.33;15.98;;;;;;;;;;5034888;28;20037;-68
2022/05/03 03:30:33;;;;;;;50.72;16.27;;;;;;;;;;5036197;28;20037;-68
2022/05/03 03:33:00;;;;;;;54.00;15.82;;;;;;;;;;5063178;28;20033;-68
2022/05/03 03:35:26;;;;;;;53.83;15.43;;;;;;;;;;5034053;28;20432;-68
2022/05/03 03:37:52;;;;;;;53.72;14.98;;;;;;;;;;5033624;28;20041;-68
2022/05/03 03:40:18;;;;;;;49.38;16.27;;;;;;;;;;5035187;28;20060;-68
2022/05/03 03:42:45;;;;;;;52.50;16.23;;;;;;;;;;5033191;28;20053;-68
2022/05/03 03:45:12;;;;;;;51.17;15.93;;;;;;;;;;5039710;28;20025;-68
2022/05/03 03:47:39;;;;;;;50.35;16.45;;;;;;;;;;5035809;28;20060;-68
2022/05/03 03:50:06;;;;;;;49.75;15.27;;;;;;;;;;5044660;28;20041;-68
2022/05/03 03:52:33;;;;;;;57.67;16.55;;;;;;;;;;5030970;28;20041;-68
2022/05/03 03:54:59;;;;;;;59.35;16.00;;;;;;;;;;5045376;28;20024;-69
2022/05/03 03:57:25;;;;;;;53.60;16.08;;;;;;;;;;5043618;28;20037;-68
2022/05/03 03:59:50;;;;;;;56.05;16.27;;;;;;;;;;5051466;28;20041;-68
2022/05/03 04:02:17;;;;;;;57.72;16.80;;;;;;;;;;5041202;28;20045;-68
2022/05/03 04:04:44;;;;;;;56.67;16.08;;;;;;;;;;5035194;28;20029;-68
2022/05/03 04:07:10;;;;;;;56.75;17.10;;;;;;;;;;5041315;28;20061;-68
2022/05/03 04:09:36;;;;;;;68.93;18.38;;;;;;;;;;5036752;28;20047;-68
2022/05/03 04:12:03;;;;;;;69.55;17.05;;;;;;;;;;5036174;28;20521;-68
2022/05/03 04:14:29;;;;;;;57.88;15.80;;;;;;;;;;5033290;28;20129;-68
2022/05/03 04:16:54;;;;;;;57.33;16.20;;;;;;;;;;5050099;28;20100;-68
2022/05/03 04:19:21;;;;;;;52.65;15.32;;;;;;;;;;5036866;28;20033;-68
2022/05/03 04:21:47;;;;;;;61.00;17.63;;;;;;;;;;5032918;28;20124;-68
2022/05/03 04:24:12;;;;;;;68.35;16.30;;;;;;;;;;5036007;28;20049;-68
2022/05/03 04:26:38;;;;;;;70.60;17.75;;;;;;;;;;5035100;28;20065;-68
2022/05/03 04:29:03;;;;;;;75.22;18.02;;;;;;;;;;5037322;28;20116;-68
2022/05/03 04:31:31;;;;;;;61.60;16.67;;;;;;;;;;5042146;28;20469;-68
2022/05/03 04:33:57;;;;;;;69.07;16.60;;;;;;;;;;5039337;28;20029;-68
2022/05/03 04:36:25;;;;;;;61.80;16.70;;;;;;;;;;5050377;28;20069;-68
2022/05/03 04:38:51;;;;;;;62.80;17.80;;;;;;;;;;5038427;28;20380;-68
2022/05/03 04:41:16;;;;;;;68.63;17.30;;;;;;;;;;5045870;28;20045;-68
2022/05/03 04:43:42;;;;;;;63.50;17.58;;;;;;;;;;5037031;28;20036;-68
2022/05/03 04:46:07;;;;;;;67.30;17.23;;;;;;;;;;5035664;28;20496;-68
2022/05/03 04:48:33;;;;;;;64.55;17.38;;;;;;;;;;5035576;28;20448;-68
2022/05/03 04:50:58;;;;;;;64.82;17.30;;;;;;;;;;5035622;28;20088;-68
2022/05/03 04:53:24;;;;;;;65.00;18.20;;;;;;;;;;5035277;28;20037;-68
2022/05/03 04:55:49;;;;;;;57.80;17.60;;;;;;;;;;5038611;28;20026;-68
2022/05/03 04:58:15;;;;;;;64.43;16.35;;;;;;;;;;5034276;28;20029;-68
2022/05/03 05:00:41;;;;;;;63.92;17.67;;;;;;;;;;5063095;28;20474;-68
2022/05/03 05:03:06;;;;;;;61.80;17.30;;;;;;;;;;5034120;28;20484;-68
2022/05/03 05:05:32;;;;;;;60.08;17.13;;;;;;;;;;5031066;28;20045;-68
2022/05/03 05:08:04;;;;;;;79.95;18.27;;;;;;;;;;5041637;28;20083;-68
2022/05/03 05:10:32;;;;;;;62.08;17.52;;;;;;;;;;5037541;28;20041;-68
2022/05/03 05:13:01;;;;;;;62.90;18.50;;;;;;;;;;5036496;28;20153;-68
2022/05/03 05:15:27;;;;;;;64.82;17.88;;;;;;;;;;5023151;28;20050;-68
2022/05/03 05:17:55;;;;;;;61.05;16.90;;;;;;;;;;5027189;28;20042;-68
2022/05/03 05:20:21;;;;;;;56.45;16.38;;;;;;;;;;5037801;28;20120;-68
2022/05/03 05:22:47;;;;;;;60.17;17.58;;;;;;;;;;5034147;28;20071;-68
2022/05/03 05:25:13;;;;;;;62.45;17.10;;;;;;;;;;5035567;28;20083;-68
2022/05/03 05:27:39;;;;;;;61.53;18.55;;;;;;;;;;5059095;28;20091;-69
2022/05/03 05:30:06;;;;;;;63.75;18.00;;;;;;;;;;5033845;28;20427;-68
2022/05/03 05:32:32;;;;;;;61.95;18.35;;;;;;;;;;5033813;28;20040;-68
2022/05/03 05:34:58;;;;;;;56.45;18.40;;;;;;;;;;5033961;28;20065;-68
2022/05/03 05:37:23;;;;;;;60.88;17.38;;;;;;;;;;5035314;28;20057;-68
2022/05/03 05:39:48;;;;;;;59.72;17.85;;;;;;;;;;5033693;28;20416;-68
2022/05/03 05:42:14;;;;;;;52.60;16.33;;;;;;;;;;5036696;28;20060;-68
2022/05/03 05:44:39;;;;;;;58.08;17.17;;;;;;;;;;5034753;28;20116;-68
2022/05/03 05:47:05;;;;;;;57.88;17.08;;;;;;;;;;5026453;28;20033;-68
2022/05/03 05:49:31;;;;;;;51.30;16.35;;;;;;;;;;5033832;28;20037;-68
2022/05/03 05:53:31;;;;;;;51.22;16.27;;;;;;;;;;5028460;28;20025;-68
2022/05/03 05:54:41;;;;;;;50.05;17.35;;;;;;;;;;5027429;28;20049;-68
2022/05/03 05:57:07;;;;;;;54.50;16.02;;;;;;;;;;5024548;28;20038;-68
2022/05/03 05:59:33;;;;;;;57.10;16.48;;;;;;;;;;5042432;28;20040;-68
2022/05/03 06:01:58;;;;;;;52.50;16.65;;;;;;;;;;5037866;28;20481;-68
2022/05/03 06:04:23;;;;;;;66.72;16.92;;;;;;;;;;5036138;28;20038;-68
2022/05/03 06:06:49;;;;;;;51.40;16.20;;;;;;;;;;5040927;28;20033;-68
2022/05/03 06:09:14;;;;;;;56.22;18.10;;;;;;;;;;5033173;28;20092;-68
2022/05/03 06:11:39;;;;;;;57.90;17.77;;;;;;;;;;5035155;28;20451;-68
2022/05/03 06:14:05;;;;;;;55.63;17.33;;;;;;;;;;5034180;28;20040;-68
2022/05/03 06:16:30;;;;;;;47.83;16.55;;;;;;;;;;5034310;28;20466;-68
2022/05/03 06:18:56;;;;;;;60.17;16.50;;;;;;;;;;5041033;28;20045;-68
2022/05/03 06:21:21;;;;;;;52.97;15.63;;;;;;;;;;5032609;28;20136;-68
2022/05/03 06:23:47;;;;;;;47.80;15.95;;;;;;;;;;5038030;28;20029;-68
2022/05/03 06:26:12;;;;;;;45.28;15.57;;;;;;;;;;5033784;28;20149;-68
2022/05/03 06:28:39;;;;;;;43.15;16.02;;;;;;;;;;5034292;28;20432;-68
2022/05/03 06:31:05;;;;;;;45.60;16.55;;;;;;;;;;5032510;28;20508;-68
2022/05/03 06:33:30;;;;;;;38.45;15.10;;;;;;;;;;5033694;28;20034;-68
2022/05/03 06:35:56;;;;;;;52.00;16.85;;;;;;;;;;5039394;28;20036;-68
2022/05/03 06:38:21;;;;;;;44.88;17.70;;;;;;;;;;5041838;28;20021;-68
2022/05/03 06:40:46;;;;;;;36.88;16.23;;;;;;;;;;5041939;28;20491;-68
2022/05/03 06:43:12;;;;;;;38.25;14.80;;;;;;;;;;5037316;28;20025;-68
2022/05/03 06:45:37;;;;;;;34.50;15.93;;;;;;;;;;5034481;28;20485;-68
2022/05/03 06:48:06;;;;;;;35.35;15.57;;;;;;;;;;5036352;28;20047;-68
2022/05/03 06:50:31;;;;;;;31.08;13.35;;;;;;;;;;5041422;28;20022;-68
2022/05/03 06:52:57;;;;;;;28.50;13.25;;;;;;;;;;5036810;28;20060;-68
2022/05/03 06:55:22;;;;;;;29.75;13.57;;;;;;;;;;5040949;28;20056;-68
2022/05/03 06:57:48;;;;;;;23.95;12.98;;;;;;;;;;5036649;28;20041;-68
2022/05/03 07:00:14;;;;;;;26.15;13.80;;;;;;;;;;5036247;28;20041;-68
2022/05/03 07:02:41;;;;;;;24.75;12.18;;;;;;;;;;5036162;28;20412;-68
2022/05/03 07:05:07;;;;;;;27.95;12.85;;;;;;;;;;5036483;28;20025;-69
2022/05/03 07:07:33;;;;;;;29.55;14.02;;;;;;;;;;5036468;28;20025;-69
2022/05/03 07:10:02;;;;;;;30.13;14.18;;;;;;;;;;5037578;28;20037;-69
2022/05/03 07:12:28;;;;;;;32.55;16.20;;;;;;;;;;5030330;28;20030;-68
2022/05/03 07:15:04;;;;;;;28.90;14.30;;;;;;;;;;5038430;28;20029;-68
2022/05/03 07:22:58;;;;;;;43.60;19.00;;;;;;;;;;5034726;28;19944;-68
2022/05/03 07:25:24;;;;;;;45.67;20.45;;;;;;;;;;5035963;28;20033;-68
2022/05/03 07:27:50;;;;;;;45.42;20.33;;;;;;;;;;5026777;28;20048;-69
2022/05/03 07:30:16;;;;;;;52.00;24.15;;;;;;;;;;5034381;28;20109;-69
2022/05/03 07:32:44;;;;;;;53.67;25.00;;;;;;;;;;5035311;28;20120;-69
2022/05/03 07:35:10;;;;;;;52.53;23.83;;;;;;;;;;5034850;28;20038;-68
2022/05/03 07:37:36;;;;;;;59.83;25.08;;;;;;;;;;5035611;28;20056;-69
2022/05/03 07:40:03;;;;;;;51.58;23.17;;;;;;;;;;5024957;28;20123;-69
2022/05/03 07:42:28;;;;;;;49.08;23.50;;;;;;;;;;5041431;28;20037;-69
2022/05/03 07:44:53;;;;;;;49.58;22.85;;;;;;;;;;5036335;28;20424;-68
2022/05/03 07:47:19;;;;;;;54.83;22.70;;;;;;;;;;5034015;28;20022;-69
2022/05/03 07:49:44;;;;;;;41.30;20.92;;;;;;;;;;5037009;28;20493;-69
2022/05/03 07:52:10;;;;;;;48.00;23.25;;;;;;;;;;5035515;28;20366;-69
2022/05/03 07:54:40;;;;;;;47.60;21.88;;;;;;;;;;5039471;28;20033;-69
2022/05/03 07:57:06;;;;;;;48.92;22.05;;;;;;;;;;5050368;28;20042;-69
2022/05/03 07:59:31;;;;;;;48.25;22.10;;;;;;;;;;5034803;28;20116;-69
2022/05/03 08:01:57;;;;;;;38.38;18.52;;;;;;;;;;5034733;28;20116;-69
2022/05/03 08:04:22;;;;;;;40.90;20.30;;;;;;;;;;5034535;28;20033;-69
2022/05/03 08:06:47;;;;;;;48.72;22.58;;;;;;;;;;5035160;28;20056;-69
2022/05/03 08:09:13;;;;;;;44.40;20.20;;;;;;;;;;5040614;28;20070;-69
2022/05/03 08:11:38;;;;;;;41.35;20.92;;;;;;;;;;5034506;28;20044;-68
2022/05/03 08:14:04;;;;;;;44.45;21.52;;;;;;;;;;5040659;28;20025;-68
2022/05/03 08:16:31;;;;;;;43.15;20.08;;;;;;;;;;5034843;28;20449;-68
2022/05/03 08:18:57;;;;;;;45.97;20.02;;;;;;;;;;5037234;28;20029;-69
2022/05/03 08:21:23;;;;;;;43.45;20.48;;;;;;;;;;5040315;28;20047;-68
2022/05/03 08:23:48;;;;;;;37.65;18.92;;;;;;;;;;5034212;28;20462;-69
2022/05/03 08:26:14;;;;;;;37.65;19.15;;;;;;;;;;5034500;28;20041;-69
2022/05/03 08:28:42;;;;;;;46.13;19.77;;;;;;;;;;5038401;28;20037;-68
2022/05/03 08:31:08;;;;;;;34.47;18.30;;;;;;;;;;5034298;28;20037;-69
2022/05/03 08:33:34;;;;;;;35.00;17.45;;;;;;;;;;5034202;28;20049;-69
2022/05/03 08:35:59;;;;;;;30.27;17.10;;;;;;;;;;5036206;28;20025;-68
2022/05/03 08:43:54;;;;;;;34.03;17.20;;;;;;;;;;5033523;28;20086;-68
2022/05/03 08:46:21;;;;;;;32.95;17.40;;;;;;;;;;5026486;28;20405;-69
2022/05/03 08:48:47;;;;;;;30.42;16.65;;;;;;;;;;5034150;28;20038;-68
2022/05/03 08:51:16;;;;;;;29.88;16.48;;;;;;;;;;5031261;28;20065;-68
2022/05/03 08:53:41;;;;;;;31.73;16.75;;;;;;;;;;5019619;28;20041;-68
2022/05/03 08:56:06;;;;;;;29.45;16.33;;;;;;;;;;5047792;28;20109;-68
2022/05/03 08:58:33;;;;;;;33.35;17.05;;;;;;;;;;5030990;28;20052;-68
2022/05/03 09:00:58;;;;;;;34.42;16.77;;;;;;;;;;5028199;28;20393;-68
2022/05/03 09:03:24;;;;;;;36.50;17.27;;;;;;;;;;5032201;28;20029;-68
2022/05/03 09:05:52;;;;;;;37.00;18.25;;;;;;;;;;5032386;28;20033;-68
2022/05/03 09:08:22;;;;;;;32.55;17.20;;;;;;;;;;5033677;28;20032;-68
2022/05/03 09:10:48;;;;;;;34.55;16.52;;;;;;;;;;5034196;28;20025;-68
2022/05/03 09:13:22;;;;;;;29.85;15.75;;;;;;;;;;5034120;28;20684;-68
2022/05/03 09:15:56;;;;;;;32.97;17.20;;;;;;;;;;5049481;28;20034;-68
2022/05/03 09:18:26;;;;;;;35.80;17.90;;;;;;;;;;5029994;28;20029;-68
2022/05/03 09:23:48;;;;;;;37.70;15.85;;;;;;;;;;5025173;28;20060;-68
2022/05/03 09:26:28;;;;;;;31.60;15.80;;;;;;;;;;5024213;28;20030;-68
2022/05/03 09:29:02;;;;;;;32.35;16.15;;;;;;;;;;5033359;28;20032;-69
2022/05/03 09:31:30;;;;;;;38.10;18.42;;;;;;;;;;5033111;28;20374;-68
2022/05/03 09:33:57;;;;;;;31.88;16.42;;;;;;;;;;5032486;28;20460;-69
2022/05/03 09:36:23;;;;;;;33.03;16.52;;;;;;;;;;5032377;28;20033;-68
2022/05/03 09:38:54;;;;;;;29.60;16.48;;;;;;;;;;5032696;28;20041;-68
2022/05/03 09:41:19;;;;;;;26.52;15.40;;;;;;;;;;5036823;28;20091;-68
2022/05/03 09:44:20;;;;;;;29.42;16.30;;;;;;;;;;5032980;28;20428;-69
2022/05/03 09:46:50;;;;;;;29.08;15.40;;;;;;;;;;5032333;28;20045;-68
2022/05/03 09:49:18;;;;;;;27.60;15.63;;;;;;;;;;5028372;28;20049;-68
2022/05/03 09:51:43;;;;;;;30.83;15.60;;;;;;;;;;5032326;28;20366;-68
2022/05/03 09:54:10;;;;;;;32.92;15.43;;;;;;;;;;5037199;28;20034;-68
2022/05/03 09:56:37;;;;;;;27.35;15.65;;;;;;;;;;5028401;28;20465;-68
2022/05/03 09:59:09;;;;;;;30.58;16.23;;;;;;;;;;5032157;28;20104;-68
2022/05/03 10:01:35;;;;;;;26.95;15.38;;;;;;;;;;5023836;28;20056;-68
2022/05/03 10:04:01;;;;;;;28.20;15.55;;;;;;;;;;5023484;28;20146;-68
2022/05/03 10:06:28;;;;;;;30.23;14.98;;;;;;;;;;5028261;28;20460;-68
2022/05/03 10:08:54;;;;;;;28.20;15.60;;;;;;;;;;5024241;28;20036;-68
2022/05/03 10:11:21;;;;;;;26.95;15.18;;;;;;;;;;5024984;28;20461;-69
2022/05/03 10:13:46;;;;;;;27.17;15.65;;;;;;;;;;5028003;28;20448;-68
2022/05/03 10:21:49;;;;;;;29.05;17.10;;;;;;;;;;5019779;28;20132;-68
2022/05/03 10:24:15;;;;;;;29.27;16.50;;;;;;;;;;5028073;28;20049;-69
2022/05/03 10:26:54;;;;;;;29.88;15.95;;;;;;;;;;5024118;28;20075;-69
2022/05/03 10:29:21;;;;;;;26.42;15.75;;;;;;;;;;5029334;28;20100;-68
2022/05/03 10:32:06;;;;;;;26.80;15.93;;;;;;;;;;5026231;28;20477;-69
2022/05/03 10:34:40;;;;;;;26.25;14.45;;;;;;;;;;5029148;28;20051;-68
2022/05/03 10:37:07;;;;;;;29.55;15.77;;;;;;;;;;5028793;28;20041;-69
2022/05/03 10:39:33;;;;;;;28.60;15.68;;;;;;;;;;5025124;28;20068;-69
2022/05/03 10:42:02;;;;;;;37.38;17.17;;;;;;;;;;5029339;28;20065;-69
2022/05/03 10:44:55;;;;;;;26.15;15.25;;;;;;;;;;5029653;28;20111;-69
2022/05/03 10:47:44;;;;;;;27.85;16.35;;;;;;;;;;5028232;28;20116;-69
2022/05/03 10:50:12;;;;;;;25.67;15.07;;;;;;;;;;5024871;28;20416;-68
2022/05/03 10:52:40;;;;;;;27.45;15.48;;;;;;;;;;5015519;28;20041;-69
2022/05/03 10:55:09;;;;;;;25.98;15.60;;;;;;;;;;5024534;28;20159;-69
2022/05/03 10:58:19;;;;;;;29.95;15.27;;;;;;;;;;5024831;28;20041;-68
2022/05/03 11:01:09;;;;;;;28.90;16.42;;;;;;;;;;5020879;28;20088;-68
2022/05/03 11:03:35;;;;;;;31.48;15.70;;;;;;;;;;5020573;28;20116;-68
2022/05/03 11:06:18;;;;;;;29.60;16.17;;;;;;;;;;5028496;28;20121;-68
2022/05/03 11:09:09;;;;;;;28.55;15.63;;;;;;;;;;5028523;28;20056;-69
2022/05/03 11:11:43;;;;;;;28.35;16.50;;;;;;;;;;5028723;28;20927;-69
2022/05/03 11:14:24;;;;;;;24.77;14.82;;;;;;;;;;5028433;28;20049;-69
2022/05/03 11:17:05;;;;;;;29.17;15.45;;;;;;;;;;5028943;28;20029;-69
2022/05/03 11:19:51;;;;;;;26.55;15.15;;;;;;;;;;5023739;28;20049;-69
2022/05/03 11:22:23;;;;;;;29.42;15.38;;;;;;;;;;5025516;28;20053;-68
2022/05/03 11:24:51;;;;;;;27.33;16.27;;;;;;;;;;5031756;28;20075;-68
2022/05/03 11:27:18;;;;;;;26.40;15.85;;;;;;;;;;5032497;28;20524;-68
2022/05/03 11:29:58;;;;;;;27.10;15.35;;;;;;;;;;5031863;28;20061;-69
2022/05/03 11:32:43;;;;;;;23.48;15.27;;;;;;;;;;5032883;28;20033;-69
2022/05/03 11:35:21;;;;;;;26.88;16.40;;;;;;;;;;5025216;28;20657;-69
2022/05/03 11:37:55;;;;;;;25.63;16.05;;;;;;;;;;5032172;28;20041;-68
2022/05/03 11:40:22;;;;;;;32.70;16.80;;;;;;;;;;5023758;28;20042;-68
2022/05/03 11:42:49;;;;;;;25.02;16.00;;;;;;;;;;5032195;28;20038;-69
2022/05/03 11:45:15;;;;;;;26.02;16.35;;;;;;;;;;5032017;28;20037;-69
2022/05/03 11:47:43;;;;;;;27.98;16.63;;;;;;;;;;5031864;28;20076;-69
2022/05/03 11:50:12;;;;;;;27.13;16.80;;;;;;;;;;5023738;28;20048;-69
2022/05/03 11:58:06;;;;;;;24.17;15.43;;;;;;;;;;5025922;28;20051;-69
2022/05/03 12:00:44;;;;;;;24.02;15.10;;;;;;;;;;5040198;28;20054;-69
2022/05/03 12:03:09;;;;;;;22.88;15.77;;;;;;;;;;5031408;28;20038;-69
2022/05/03 12:05:36;;;;;;;25.80;16.25;;;;;;;;;;5031576;28;20029;-69
2022/05/03 12:08:02;;;;;;;27.45;17.05;;;;;;;;;;5031399;28;20492;-69
2022/05/03 12:10:35;;;;;;;26.63;16.50;;;;;;;;;;5030616;28;20465;-69
2022/05/03 12:13:09;;;;;;;27.23;15.43;;;;;;;;;;5031446;28;20482;-69
2022/05/03 12:15:40;;;;;;;23.33;14.43;;;;;;;;;;5031678;28;20042;-69
2022/05/03 12:18:11;;;;;;;24.00;14.80;;;;;;;;;;5030899;28;20517;-69
2022/05/03 12:20:42;;;;;;;21.20;14.52;;;;;;;;;;5018342;28;20068;-69
2022/05/03 12:23:13;;;;;;;24.85;15.48;;;;;;;;;;5025696;28;20711;-69
2022/05/03 12:25:41;;;;;;;24.73;14.82;;;;;;;;;;5030915;28;20037;-68
2022/05/03 12:28:07;;;;;;;26.00;15.40;;;;;;;;;;5030828;28;20045;-69
2022/05/03 12:30:33;;;;;;;25.63;15.57;;;;;;;;;;5024313;28;20436;-69
2022/05/03 12:33:04;;;;;;;25.58;16.88;;;;;;;;;;5030863;28;20367;-69
2022/05/03 12:35:31;;;;;;;26.85;16.33;;;;;;;;;;5028313;28;20045;-68
2022/05/03 12:37:56;;;;;;;26.60;15.15;;;;;;;;;;5031347;28;20483;-69
2022/05/03 12:40:26;;;;;;;25.40;16.52;;;;;;;;;;5030755;28;20065;-69
2022/05/03 12:42:51;;;;;;;25.85;16.02;;;;;;;;;;5030380;28;20037;-69
2022/05/03 12:45:19;;;;;;;26.75;15.68;;;;;;;;;;5030955;28;20523;-69
2022/05/03 12:47:45;;;;;;;46.03;21.75;;;;;;;;;;5030711;28;20129;-69
2022/05/03 12:50:11;;;;;;;32.85;17.42;;;;;;;;;;5018828;28;20725;-69
2022/05/03 12:52:36;;;;;;;28.23;16.33;;;;;;;;;;5029902;28;20033;-69
2022/05/03 12:55:02;;;;;;;27.60;16.52;;;;;;;;;;5030722;28;20045;-69
2022/05/03 13:00:14;;;;;;;25.92;16.58;;;;;;;;;;5029963;28;20099;-69
2022/05/03 13:02:40;;;;;;;27.25;16.30;;;;;;;;;;5030000;28;20116;-69
2022/05/03 13:05:06;;;;;;;25.33;15.98;;;;;;;;;;5029889;28;20144;-69
2022/05/03 13:07:31;;;;;;;29.77;16.95;;;;;;;;;;5029593;28;20374;-69
2022/05/03 13:09:56;;;;;;;28.48;17.55;;;;;;;;;;5028436;28;20044;-69
2022/05/03 13:12:22;;;;;;;27.60;17.27;;;;;;;;;;5030482;28;20024;-69
2022/05/03 13:14:48;;;;;;;28.42;17.70;;;;;;;;;;5030421;28;20029;-69
2022/05/03 13:17:14;;;;;;;25.73;16.35;;;;;;;;;;5028206;28;20037;-69
2022/05/03 13:19:40;;;;;;;28.00;17.13;;;;;;;;;;5029833;28;20129;-69
2022/05/03 13:22:05;;;;;;;25.15;16.40;;;;;;;;;;5043087;28;20044;-69
2022/05/03 13:24:31;;;;;;;27.40;17.17;;;;;;;;;;5020304;28;20112;-69
2022/05/03 13:26:58;;;;;;;25.27;17.63;;;;;;;;;;5029563;28;20076;-69
2022/05/03 13:29:23;;;;;;;26.60;16.90;;;;;;;;;;5027682;28;20057;-69
2022/05/03 13:31:50;;;;;;;33.00;17.10;;;;;;;;;;5028507;28;20076;-69
2022/05/03 13:34:15;;;;;;;26.67;17.08;;;;;;;;;;5027194;28;20491;-69
2022/05/03 13:42:10;;;;;;;30.58;17.77;;;;;;;;;;5029035;28;20044;-68
2022/05/03 13:44:37;;;;;;;31.15;18.10;;;;;;;;;;5025990;28;20041;-69
2022/05/03 13:47:04;;;;;;;34.25;17.83;;;;;;;;;;5029588;28;20135;-69
2022/05/03 13:49:29;;;;;;;29.20;18.20;;;;;;;;;;5029571;28;20029;-69
2022/05/03 13:51:55;;;;;;;31.45;18.05;;;;;;;;;;5025156;28;20046;-69
2022/05/03 13:54:20;;;;;;;32.90;18.92;;;;;;;;;;5044203;28;20515;-69
2022/05/03 13:56:46;;;;;;;28.58;18.00;;;;;;;;;;5029323;28;20440;-68
2022/05/03 13:59:12;;;;;;;32.42;18.75;;;;;;;;;;5028282;28;20087;-69
2022/05/03 14:01:38;;;;;;;31.58;18.95;;;;;;;;;;5025526;28;20054;-68
2022/05/03 14:04:04;;;;;;;33.95;19.85;;;;;;;;;;5024845;28;20033;-68
2022/05/03 14:06:30;;;;;;;34.38;18.35;;;;;;;;;;5029039;28;20084;-69
2022/05/03 14:08:55;;;;;;;30.42;20.45;;;;;;;;;;5029355;28;20029;-69
2022/05/03 14:11:21;;;;;;;36.45;20.23;;;;;;;;;;5025990;28;20112;-68
2022/05/03 14:13:47;;;;;;;34.00;19.55;;;;;;;;;;5029458;28;20041;-68
2022/05/03 14:16:13;;;;;;;35.15;19.02;;;;;;;;;;5029218;28;20068;-68
2022/05/03 14:18:38;;;;;;;32.60;20.33;;;;;;;;;;5028903;28;20026;-68
2022/05/03 14:21:04;;;;;;;34.08;19.70;;;;;;;;;;5028733;28;20038;-68
2022/05/03 14:23:29;;;;;;;33.90;20.40;;;;;;;;;;5024359;28;20043;-68
2022/05/03 14:25:54;;;;;;;35.50;20.65;;;;;;;;;;5029201;28;20453;-69
2022/05/03 14:28:20;;;;;;;37.30;21.75;;;;;;;;;;5029373;28;20064;-68
2022/05/03 14:30:46;;;;;;;37.35;20.45;;;;;;;;;;5029262;28;20117;-69
2022/05/03 14:33:13;;;;;;;32.78;20.17;;;;;;;;;;5025476;28;20160;-68
2022/05/03 14:35:40;;;;;;;35.08;21.58;;;;;;;;;;5028832;28;20045;-68
2022/05/03 14:38:06;;;;;;;34.75;20.95;;;;;;;;;;5028318;28;20428;-69
2022/05/03 14:40:31;;;;;;;34.67;20.15;;;;;;;;;;5029808;28;20033;-68
2022/05/03 14:42:59;;;;;;;33.42;20.38;;;;;;;;;;5044099;28;20071;-69
2022/05/03 14:45:25;;;;;;;36.17;21.48;;;;;;;;;;5028324;28;20033;-68
2022/05/03 14:47:50;;;;;;;39.38;23.00;;;;;;;;;;5029316;28;20048;-68
2022/05/03 14:50:16;;;;;;;40.17;23.55;;;;;;;;;;5028926;28;20034;-69
2022/05/03 14:52:41;;;;;;;39.75;23.42;;;;;;;;;;5029590;28;20030;-68
2022/05/03 14:55:07;;;;;;;34.83;21.77;;;;;;;;;;5023840;28;20040;-68
2022/05/03 15:03:02;;;;;;;41.63;23.98;;;;;;;;;;5028381;28;20127;-68
2022/05/03 15:05:32;;;;;;;40.13;23.25;;;;;;;;;;5031695;28;20477;-69
2022/05/03 15:08:02;;;;;;;38.13;22.92;;;;;;;;;;5032479;28;20053;-68
2022/05/03 15:10:29;;;;;;;40.40;23.95;;;;;;;;;;5032805;28;20388;-68
2022/05/03 15:13:00;;;;;;;36.72;23.25;;;;;;;;;;5032499;28;20414;-69
2022/05/03 15:15:26;;;;;;;39.97;23.15;;;;;;;;;;5028981;28;20153;-68